Startpagina
METAR-TAF:

METAR-TAF

Vliegvelden :

Aéroport de Luxembourg

Luxemburg, Luxemburg

breedte: 49-37N, lengte: 006-13E, hoogte: 376 m

Actueel weer

Dit bericht is 39 minuten geleden gemaakt, om 04:50 UTC
Wind 8 kt uit het noordnoordoosten
Temperatuur -2°C
Vochtigheid 63%
Druk 1024 hPa
Zicht 10 km of meer
geen wolken onder 1500 m en geen cumulonimbus

METAR: ELLX 070450Z 03008KT CAVOK M02/M08 Q1024 NOSIG

Tijdstip: 06:29 (05:29 UTC)

Verwachting

Dit bericht is 6 uur en het 29 minuten geleden gemaakt, om 23:00 UTC
Verwachting geldig van 07 om 00 UTC tot 08 om 06 UTC
Wind 9 kt uit het noordoosten
Zicht 10 km of meer
geen wolken onder 1500 m en geen cumulonimbus

TAF: ELLX 062300Z 0700/0806 05009KT CAVOK

Waarnemingen en weersverwachtingen van meer dan 4000 vliegvelden (METAR en TAF).

De beschikbare stations zijn de gele en rode punten op de kaart.

Ga met uw muis naar het station om de naam te zien.

Klik dan om waarnemingen en weersverwachtingen te zien.

kaart wijzigen: klik op de groene knoppen met een zwart kruis om in te zoomen, op de groene knop met een streepje om uit te zoomen of op de groene pijlen voor aangrenzende kaarten.


METAR-TAF: